createdAt,value
2022-08-07T00:02:40.471Z,8.80
2022-08-07T00:05:05.965Z,8.40
2022-08-07T00:07:40.497Z,9.00
2022-08-07T00:12:57.852Z,8.70
2022-08-07T00:15:38.633Z,7.60
2022-08-07T00:20:50.005Z,8.50
2022-08-07T00:23:21.075Z,8.20
2022-08-07T00:25:52.093Z,7.80
2022-08-07T00:28:31.791Z,9.40
2022-08-07T00:31:06.187Z,7.60
2022-08-07T00:33:36.295Z,8.00
2022-08-07T00:36:06.810Z,8.40
2022-08-07T00:38:36.558Z,8.60
2022-08-07T00:41:09.913Z,7.80
2022-08-07T00:43:58.882Z,10.00
2022-08-07T00:46:33.144Z,8.50
2022-08-07T00:49:03.606Z,8.50
2022-08-07T00:51:58.150Z,9.20
2022-08-07T00:54:22.729Z,9.20
2022-08-07T00:56:52.003Z,9.70
2022-08-07T00:59:35.068Z,9.10
2022-08-07T01:02:14.088Z,8.60
2022-08-07T01:04:58.862Z,7.80
2022-08-07T01:07:29.631Z,8.50
2022-08-07T01:10:04.433Z,8.60
2022-08-07T01:12:37.168Z,8.70
2022-08-07T01:15:11.920Z,8.30
2022-08-07T01:17:46.627Z,8.20
2022-08-07T01:20:17.439Z,8.40
2022-08-07T01:23:00.478Z,7.70
2022-08-07T01:25:40.579Z,8.60
2022-08-07T01:28:24.291Z,8.10
2022-08-07T01:30:55.953Z,8.00
2022-08-07T01:33:30.048Z,9.00
2022-08-07T01:36:15.079Z,9.00
2022-08-07T01:38:46.072Z,9.20
2022-08-07T01:41:25.922Z,8.50
2022-08-07T01:43:55.895Z,9.10
2022-08-07T01:46:25.535Z,8.10
2022-08-07T01:48:54.415Z,7.80
2022-08-07T01:52:04.109Z,8.90
2022-08-07T01:54:33.093Z,8.00
2022-08-07T01:57:08.483Z,8.10
2022-08-07T01:59:45.230Z,7.90
2022-08-07T02:02:32.585Z,8.40
2022-08-07T02:05:15.773Z,9.00
2022-08-07T02:08:07.973Z,8.80
2022-08-07T02:10:42.242Z,9.20
2022-08-07T02:13:12.927Z,9.60
2022-08-07T02:15:43.364Z,8.80
2022-08-07T02:18:13.935Z,8.90
2022-08-07T02:20:48.682Z,8.20
2022-08-07T02:23:23.999Z,8.50
2022-08-07T02:26:30.589Z,8.90
2022-08-07T02:28:45.487Z,7.10
2022-08-07T02:31:28.670Z,8.70
2022-08-07T02:34:03.493Z,9.80
2022-08-07T02:36:33.960Z,8.40
2022-08-07T02:39:16.043Z,9.70
2022-08-07T02:41:54.492Z,8.00
2022-08-07T02:44:26.793Z,9.00
2022-08-07T02:46:58.657Z,8.00
2022-08-07T02:49:57.466Z,8.80
2022-08-07T02:52:32.263Z,9.10
2022-08-07T02:55:27.784Z,8.60
2022-08-07T02:58:06.576Z,9.50
2022-08-07T03:00:40.639Z,9.50
2022-08-07T03:03:21.219Z,9.60
2022-08-07T03:05:54.619Z,10.80
2022-08-07T03:08:26.946Z,9.60
2022-08-07T03:10:59.603Z,10.90
2022-08-07T03:13:28.740Z,9.90
2022-08-07T03:16:08.262Z,8.90
2022-08-07T03:18:37.605Z,10.50
2022-08-07T03:21:08.837Z,8.90
2022-08-07T03:24:19.661Z,9.90
2022-08-07T03:26:33.117Z,10.10
2022-08-07T03:29:05.697Z,9.70
2022-08-07T03:31:46.137Z,9.20
2022-08-07T03:36:54.138Z,9.60
2022-08-07T03:39:46.456Z,11.00
2022-08-07T03:42:14.159Z,9.70
2022-08-07T03:44:53.067Z,9.10
2022-08-07T03:47:23.264Z,10.40
2022-08-07T03:49:53.647Z,9.40
2022-08-07T03:52:26.571Z,10.30
2022-08-07T03:55:06.241Z,9.30
2022-08-07T03:58:34.913Z,10.20
2022-08-07T04:00:30.190Z,10.40
2022-08-07T04:03:03.769Z,11.20
2022-08-07T04:05:41.137Z,9.10
2022-08-07T04:08:16.159Z,9.10
2022-08-07T04:10:54.074Z,10.00
2022-08-07T04:14:09.359Z,9.10
2022-08-07T04:16:31.254Z,9.40
2022-08-07T04:19:04.208Z,10.50
2022-08-07T04:21:59.500Z,9.50
2022-08-07T04:24:39.121Z,11.30
2022-08-07T04:27:15.093Z,10.00
2022-08-07T04:30:02.313Z,10.40
2022-08-07T04:32:34.217Z,10.10
2022-08-07T04:35:07.187Z,10.60
2022-08-07T04:38:02.778Z,9.70
2022-08-07T04:40:31.387Z,10.00
2022-08-07T04:43:03.615Z,11.60
2022-08-07T04:45:58.118Z,11.20
2022-08-07T04:48:44.861Z,9.40
2022-08-07T04:51:27.078Z,10.10
2022-08-07T04:54:06.161Z,10.00
2022-08-07T04:58:11.442Z,9.70
2022-08-07T05:00:09.734Z,10.30
2022-08-07T05:02:39.369Z,10.70
2022-08-07T05:05:52.561Z,10.70
2022-08-07T05:08:59.519Z,10.80
2022-08-07T05:11:19.211Z,10.10
2022-08-07T05:14:55.794Z,11.00
2022-08-07T05:16:47.036Z,9.60
2022-08-07T05:19:32.625Z,9.90
2022-08-07T05:22:26.779Z,10.60
2022-08-07T05:24:59.685Z,9.50
2022-08-07T05:28:16.140Z,9.80
2022-08-07T05:30:29.993Z,10.50
2022-08-07T05:33:03.422Z,10.50
2022-08-07T05:35:41.897Z,9.80
2022-08-07T05:38:12.051Z,10.00
2022-08-07T05:40:51.416Z,10.70
2022-08-07T05:43:43.363Z,10.00
2022-08-07T05:46:12.321Z,12.00
2022-08-07T05:48:58.421Z,9.60
2022-08-07T05:51:31.686Z,9.00
2022-08-07T05:54:14.068Z,10.20
2022-08-07T05:56:54.300Z,9.30
2022-08-07T05:59:25.222Z,9.40
2022-08-07T06:01:58.355Z,11.80
2022-08-07T06:04:30.433Z,11.30
2022-08-07T06:07:04.410Z,9.10
2022-08-07T06:10:04.370Z,10.60
2022-08-07T06:12:27.959Z,10.90
2022-08-07T06:15:05.732Z,10.00
2022-08-07T06:17:37.580Z,8.60
2022-08-07T06:20:12.344Z,9.80
2022-08-07T06:22:50.777Z,10.60
2022-08-07T06:25:34.897Z,8.90
2022-08-07T06:28:05.913Z,10.30
2022-08-07T06:30:41.357Z,9.70
2022-08-07T06:33:16.600Z,10.10
2022-08-07T06:36:06.207Z,10.60
2022-08-07T06:38:35.338Z,10.60
2022-08-07T06:41:12.901Z,9.80
2022-08-07T06:43:46.578Z,9.40
2022-08-07T06:46:35.265Z,10.00
2022-08-07T06:49:05.494Z,9.70
2022-08-07T06:51:49.572Z,9.00
2022-08-07T06:55:30.063Z,10.90
2022-08-07T06:57:12.728Z,10.50
2022-08-07T07:00:14.716Z,9.50
2022-08-07T07:02:54.050Z,11.30
2022-08-07T07:06:02.681Z,9.50
2022-08-07T07:08:18.166Z,9.60
2022-08-07T07:10:56.438Z,9.80
2022-08-07T07:13:55.706Z,10.20
2022-08-07T07:16:27.454Z,9.60
2022-08-07T07:19:41.015Z,10.10
2022-08-07T07:22:05.101Z,9.50
2022-08-07T07:24:56.573Z,10.20
2022-08-07T07:27:35.779Z,8.80
2022-08-07T07:30:32.610Z,7.80
2022-08-07T07:33:11.499Z,8.90
2022-08-07T07:36:04.483Z,9.30
2022-08-07T07:38:34.942Z,9.30
2022-08-07T07:41:09.199Z,9.70
2022-08-07T07:44:14.040Z,9.00
2022-08-07T07:46:37.730Z,9.20
2022-08-07T07:50:34.581Z,9.40
2022-08-07T07:52:16.146Z,8.60
2022-08-07T07:54:51.165Z,8.20
2022-08-07T07:57:43.634Z,8.40
2022-08-07T08:00:21.205Z,8.30
2022-08-07T08:03:05.505Z,9.00
2022-08-07T08:05:42.751Z,8.50
2022-08-07T08:08:34.549Z,8.70
2022-08-07T08:11:16.439Z,9.20
2022-08-07T08:13:59.600Z,9.00
2022-08-07T08:16:35.500Z,9.30
2022-08-07T08:19:09.664Z,7.70
2022-08-07T08:22:08.142Z,7.90
2022-08-07T08:25:18.155Z,8.00
2022-08-07T08:27:57.128Z,7.30
2022-08-07T08:30:27.671Z,8.60
2022-08-07T08:33:01.778Z,8.80
2022-08-07T08:35:39.560Z,8.00
2022-08-07T08:38:18.136Z,9.20
2022-08-07T08:40:56.971Z,9.80
2022-08-07T08:43:42.122Z,8.60
2022-08-07T08:46:26.687Z,8.40
2022-08-07T08:49:05.110Z,8.50
2022-08-07T08:51:49.515Z,7.60
2022-08-07T08:54:38.522Z,8.20
2022-08-07T08:57:13.548Z,10.20
2022-08-07T08:59:53.770Z,8.10
2022-08-07T09:02:37.796Z,8.20
2022-08-07T09:05:32.040Z,9.50
2022-08-07T09:08:28.109Z,9.70
2022-08-07T09:11:34.960Z,8.90
2022-08-07T09:14:13.231Z,9.40
2022-08-07T09:17:02.254Z,9.20
2022-08-07T09:19:53.456Z,9.40
2022-08-07T09:24:32.441Z,9.40
2022-08-07T09:25:53.401Z,10.80
2022-08-07T09:30:00.815Z,9.10
2022-08-07T09:31:38.276Z,8.80
2022-08-07T09:34:15.936Z,9.90
2022-08-07T09:36:55.571Z,8.60
2022-08-07T09:39:53.800Z,9.30
2022-08-07T09:42:47.448Z,8.30
2022-08-07T09:47:52.478Z,8.00
2022-08-07T09:48:30.923Z,8.30
2022-08-07T09:52:16.212Z,7.60
2022-08-07T09:54:40.084Z,9.60
2022-08-07T09:57:46.463Z,10.10
2022-08-07T10:00:19.592Z,9.40
2022-08-07T10:04:03.862Z,9.40
2022-08-07T10:06:54.056Z,8.30
2022-08-07T10:10:00.808Z,8.80
2022-08-07T10:12:53.171Z,9.10
2022-08-07T10:16:02.295Z,8.60
2022-08-07T10:18:59.223Z,10.20
2022-08-07T10:22:12.408Z,9.70
2022-08-07T10:24:59.504Z,9.00
2022-08-07T10:27:46.091Z,9.90
2022-08-07T10:30:19.819Z,10.10
2022-08-07T10:33:15.026Z,9.30
2022-08-07T10:36:11.049Z,9.70
2022-08-07T10:38:51.145Z,9.10
2022-08-07T10:41:52.119Z,10.70
2022-08-07T10:44:33.882Z,10.30
2022-08-07T10:47:31.160Z,8.30
2022-08-07T10:50:25.891Z,9.50
2022-08-07T10:53:05.294Z,11.60
2022-08-07T10:55:45.200Z,11.20
2022-08-07T10:58:59.382Z,10.20
2022-08-07T11:01:52.159Z,7.90
2022-08-07T11:04:50.675Z,7.80
2022-08-07T11:08:01.369Z,9.40
2022-08-07T11:10:21.424Z,10.20
2022-08-07T11:13:02.910Z,9.20
2022-08-07T11:15:35.884Z,8.30
2022-08-07T11:18:25.452Z,8.60
2022-08-07T11:21:06.228Z,8.90
2022-08-07T11:23:45.889Z,7.80
2022-08-07T11:26:26.510Z,8.60
2022-08-07T11:29:05.719Z,7.80
2022-08-07T11:31:49.584Z,8.30
2022-08-07T11:34:29.251Z,8.00
2022-08-07T11:37:11.745Z,8.30
2022-08-07T11:40:07.492Z,7.80
2022-08-07T11:42:54.324Z,7.70
2022-08-07T11:45:35.903Z,6.20
2022-08-07T11:48:29.669Z,7.40
2022-08-07T11:51:41.671Z,7.60
2022-08-07T11:54:22.115Z,6.90
2022-08-07T11:57:12.644Z,7.20
2022-08-07T12:00:11.640Z,7.20
2022-08-07T12:03:44.667Z,8.70
2022-08-07T12:06:38.918Z,6.90
2022-08-07T12:09:16.825Z,7.50
2022-08-07T12:12:09.161Z,7.20
2022-08-07T12:15:00.147Z,7.70
2022-08-07T12:17:58.583Z,7.60
2022-08-07T12:20:35.078Z,6.60
2022-08-07T12:24:05.518Z,7.10
2022-08-07T12:26:46.369Z,5.30
2022-08-07T12:29:38.071Z,5.80
2022-08-07T12:32:16.041Z,5.90
2022-08-07T12:34:56.194Z,6.80
2022-08-07T12:37:28.409Z,6.70
2022-08-07T12:40:46.865Z,6.40
2022-08-07T12:44:04.465Z,5.80
2022-08-07T12:46:15.802Z,6.40
2022-08-07T12:49:09.754Z,7.00
2022-08-07T12:52:14.102Z,6.50
2022-08-07T12:55:02.857Z,7.60
2022-08-07T12:57:59.502Z,7.30
2022-08-07T13:00:34.562Z,6.20
2022-08-07T13:04:00.559Z,7.40
2022-08-07T13:06:54.264Z,8.00
2022-08-07T13:10:28.335Z,7.30
2022-08-07T13:12:52.475Z,8.90
2022-08-07T13:15:34.147Z,7.90
2022-08-07T13:18:26.057Z,7.80
2022-08-07T13:21:02.732Z,8.30
2022-08-07T13:24:01.502Z,7.90
2022-08-07T13:26:35.873Z,7.50
2022-08-07T13:29:12.965Z,6.50
2022-08-07T13:31:57.716Z,8.50
2022-08-07T13:34:36.956Z,8.00
2022-08-07T13:37:20.089Z,7.50
2022-08-07T13:40:35.611Z,7.20
2022-08-07T13:43:06.473Z,7.20
2022-08-07T13:46:12.107Z,8.50
2022-08-07T13:48:38.399Z,8.60
2022-08-07T13:51:27.292Z,7.70
2022-08-07T13:54:03.519Z,7.80
2022-08-07T13:56:41.404Z,8.10
2022-08-07T13:59:25.457Z,6.90
2022-08-07T14:02:07.141Z,9.10
2022-08-07T14:04:50.091Z,8.80
2022-08-07T14:07:23.574Z,9.00
2022-08-07T14:10:01.912Z,8.40
2022-08-07T14:12:41.645Z,6.60
2022-08-07T14:15:22.434Z,7.80
2022-08-07T14:18:28.000Z,7.70
2022-08-07T14:20:54.588Z,9.00
2022-08-07T14:23:31.527Z,7.70
2022-08-07T14:26:29.798Z,8.10
2022-08-07T14:29:08.798Z,6.40
2022-08-07T14:31:56.499Z,7.60
2022-08-07T14:34:30.483Z,9.70
2022-08-07T14:37:03.139Z,7.40
2022-08-07T14:40:17.212Z,6.50
2022-08-07T14:42:31.397Z,6.60
2022-08-07T14:45:22.340Z,6.30
2022-08-07T14:47:58.629Z,7.30
2022-08-07T14:50:37.582Z,7.30
2022-08-07T14:53:09.779Z,6.40
2022-08-07T14:55:55.842Z,7.00
2022-08-07T14:58:31.552Z,6.90
2022-08-07T15:01:21.347Z,7.10
2022-08-07T15:03:53.492Z,5.80
2022-08-07T15:06:27.628Z,5.60
2022-08-07T15:10:00.765Z,5.30
2022-08-07T15:12:01.366Z,5.10
2022-08-07T15:14:32.497Z,6.70
2022-08-07T15:17:04.384Z,6.70
2022-08-07T15:22:33.300Z,6.10
2022-08-07T15:25:18.117Z,5.30
2022-08-07T15:31:05.433Z,5.30
2022-08-07T15:33:42.764Z,5.50
2022-08-07T15:36:14.018Z,4.60
2022-08-07T15:39:04.570Z,4.20
2022-08-07T15:42:43.541Z,4.20
2022-08-07T15:44:51.881Z,4.30
2022-08-07T15:48:00.129Z,4.50
2022-08-07T15:51:02.055Z,3.90
2022-08-07T15:53:12.087Z,4.80
2022-08-07T15:55:58.773Z,5.30
2022-08-07T15:58:38.594Z,4.80
2022-08-07T16:01:14.355Z,3.90
2022-08-07T16:03:55.670Z,5.00
2022-08-07T16:06:33.795Z,4.80
2022-08-07T16:09:13.340Z,4.50
2022-08-07T16:12:12.243Z,3.70
2022-08-07T16:14:59.126Z,4.50
2022-08-07T16:18:02.552Z,2.70
2022-08-07T16:20:41.979Z,4.50
2022-08-07T16:23:25.093Z,4.70
2022-08-07T16:26:30.634Z,4.50
2022-08-07T16:30:05.456Z,3.90
2022-08-07T16:32:06.536Z,4.20
2022-08-07T16:35:06.144Z,4.50
2022-08-07T16:38:15.071Z,3.30
2022-08-07T16:41:15.942Z,5.30
2022-08-07T16:44:47.212Z,3.80
2022-08-07T16:47:51.216Z,4.70
2022-08-07T16:51:21.620Z,4.90
2022-08-07T16:54:06.756Z,3.60
2022-08-07T16:56:56.992Z,4.10
2022-08-07T16:59:46.713Z,4.40
2022-08-07T17:02:52.919Z,4.00
2022-08-07T17:06:18.815Z,4.30
2022-08-07T17:09:09.247Z,4.20
2022-08-07T17:12:04.679Z,3.90
2022-08-07T17:14:43.668Z,5.30
2022-08-07T17:17:28.091Z,4.50
2022-08-07T17:20:22.799Z,4.00
2022-08-07T17:23:11.609Z,4.70
2022-08-07T17:26:03.737Z,4.70
2022-08-07T17:28:38.147Z,4.70
2022-08-07T17:31:16.508Z,5.30
2022-08-07T17:34:15.134Z,4.30
2022-08-07T17:36:57.883Z,4.80
2022-08-07T17:39:58.778Z,4.90
2022-08-07T17:42:58.623Z,5.10
2022-08-07T17:45:34.881Z,5.00
2022-08-07T17:48:12.637Z,5.00
2022-08-07T17:50:54.060Z,5.40
2022-08-07T17:54:02.089Z,5.50
2022-08-07T17:56:29.483Z,5.00
2022-08-07T17:59:09.694Z,4.80
2022-08-07T18:01:57.975Z,6.90
2022-08-07T18:04:47.944Z,5.90
2022-08-07T18:07:36.737Z,5.30
2022-08-07T18:10:32.099Z,5.30
2022-08-07T18:13:17.563Z,5.30
2022-08-07T18:16:06.207Z,5.60
2022-08-07T18:21:00.696Z,6.00
2022-08-07T18:21:53.546Z,5.60
2022-08-07T18:24:33.626Z,5.90
2022-08-07T18:27:38.764Z,5.80
2022-08-07T18:30:32.389Z,5.80
2022-08-07T18:33:31.359Z,5.90
2022-08-07T18:36:14.564Z,5.50
2022-08-07T18:40:06.709Z,6.40
2022-08-07T18:42:18.004Z,6.50
2022-08-07T18:45:43.341Z,6.50
2022-08-07T18:48:00.901Z,6.90
2022-08-07T18:50:57.760Z,6.90
2022-08-07T18:53:43.012Z,7.70
2022-08-07T18:59:46.733Z,6.90
2022-08-07T19:02:32.503Z,7.50
2022-08-07T19:05:14.862Z,7.40
2022-08-07T19:07:57.905Z,9.60
2022-08-07T19:10:51.775Z,8.10
2022-08-07T19:13:30.355Z,9.10
2022-08-07T19:17:01.494Z,9.20
2022-08-07T19:19:03.226Z,8.90
2022-08-07T19:21:47.394Z,10.30
2022-08-07T19:24:36.289Z,8.10
2022-08-07T19:28:30.950Z,8.00
2022-08-07T19:31:03.821Z,6.90
2022-08-07T19:32:59.757Z,7.50
2022-08-07T19:35:33.071Z,6.60
2022-08-07T19:38:14.903Z,6.50
2022-08-07T19:40:50.571Z,7.70
2022-08-07T19:43:43.770Z,7.10
2022-08-07T19:46:17.837Z,5.60
2022-08-07T19:48:55.970Z,6.50
2022-08-07T19:51:52.863Z,6.30
2022-08-07T19:54:33.550Z,5.60
2022-08-07T19:58:00.784Z,6.10
2022-08-07T20:00:08.782Z,5.90
2022-08-07T20:02:52.330Z,5.50
2022-08-07T20:06:00.070Z,5.20
2022-08-07T20:08:26.324Z,5.60
2022-08-07T20:11:01.845Z,6.20
2022-08-07T20:13:41.900Z,6.40
2022-08-07T20:16:35.670Z,5.60
2022-08-07T20:19:10.099Z,5.00
2022-08-07T20:21:47.545Z,5.50
2022-08-07T20:24:21.705Z,4.50
2022-08-07T20:26:55.792Z,6.00
2022-08-07T20:29:49.574Z,6.50
2022-08-07T20:32:23.021Z,4.60
2022-08-07T20:34:56.859Z,5.40
2022-08-07T20:37:29.354Z,4.60
2022-08-07T20:40:04.743Z,5.90
2022-08-07T20:42:38.944Z,5.10
2022-08-07T20:45:33.185Z,5.40
2022-08-07T20:48:02.523Z,5.80
2022-08-07T20:50:33.118Z,5.40
2022-08-07T20:53:02.615Z,4.50
2022-08-07T20:55:35.967Z,5.70
2022-08-07T20:58:19.311Z,6.40
2022-08-07T21:00:55.557Z,5.60
2022-08-07T21:03:26.314Z,5.70
2022-08-07T21:06:00.203Z,6.60
2022-08-07T21:08:38.001Z,5.30
2022-08-07T21:11:12.418Z,5.70
2022-08-07T21:14:16.793Z,5.30
2022-08-07T21:16:56.058Z,6.60
2022-08-07T21:19:32.552Z,6.30
2022-08-07T21:22:19.353Z,6.50
2022-08-07T21:25:04.829Z,5.70
2022-08-07T21:28:01.983Z,6.80
2022-08-07T21:30:44.017Z,7.00
2022-08-07T21:33:38.393Z,6.60
2022-08-07T21:36:31.896Z,7.00
2022-08-07T21:39:46.628Z,6.60
2022-08-07T21:42:37.685Z,5.90
2022-08-07T21:45:08.283Z,7.50
2022-08-07T21:47:59.690Z,6.50
2022-08-07T21:50:35.145Z,7.00
2022-08-07T21:53:12.524Z,7.90
2022-08-07T21:55:47.536Z,8.10
2022-08-07T21:58:30.575Z,7.40
2022-08-07T22:01:08.413Z,6.80
2022-08-07T22:03:51.726Z,6.90
2022-08-07T22:06:31.209Z,6.10
2022-08-07T22:09:07.068Z,7.20
2022-08-07T22:11:52.942Z,7.00
2022-08-07T22:14:23.769Z,6.70
2022-08-07T22:17:07.301Z,8.10
2022-08-07T22:19:52.652Z,7.70
2022-08-07T22:22:34.884Z,7.00
2022-08-07T22:25:15.505Z,6.90
2022-08-07T22:28:07.285Z,6.30
2022-08-07T22:30:52.715Z,6.60
2022-08-07T22:33:52.828Z,7.90
2022-08-07T22:36:31.868Z,6.20
2022-08-07T22:39:07.434Z,6.60
2022-08-07T22:42:03.099Z,7.30
2022-08-07T22:44:35.820Z,6.50
2022-08-07T22:47:28.343Z,6.70
2022-08-07T22:50:29.050Z,5.90
2022-08-07T22:54:07.528Z,6.10
2022-08-07T22:56:23.008Z,6.60
2022-08-07T22:59:40.921Z,6.30
2022-08-07T23:02:29.876Z,8.10
2022-08-07T23:06:07.642Z,6.50
2022-08-07T23:08:30.665Z,6.50
2022-08-07T23:11:17.658Z,7.60
2022-08-07T23:14:16.540Z,7.10
2022-08-07T23:17:15.648Z,7.50
2022-08-07T23:20:15.240Z,6.40
2022-08-07T23:25:32.830Z,6.00
2022-08-07T23:28:22.047Z,7.70
2022-08-07T23:34:36.358Z,5.40
2022-08-07T23:37:19.128Z,7.00
2022-08-07T23:40:02.896Z,6.60
2022-08-07T23:42:54.114Z,6.20
2022-08-07T23:46:02.657Z,6.50
2022-08-07T23:48:56.166Z,6.20
2022-08-07T23:52:58.558Z,6.70
2022-08-07T23:54:44.596Z,7.20
2022-08-07T23:57:27.663Z,6.70
